sensor_id;sensor_type;location;lat;lon;timestamp;P1;durP1;ratioP1;P2;durP2;ratioP2
12912;SDS011;6524;51.368;11.984;2023-04-12T04:02:26;6.20;;;4.70;;
12912;SDS011;6524;51.368;11.984;2023-04-12T04:07:26;4.83;;;4.30;;
12912;SDS011;6524;51.368;11.984;2023-04-12T04:12:27;8.70;;;5.67;;
12912;SDS011;6524;51.368;11.984;2023-04-12T04:17:27;6.80;;;4.43;;
12912;SDS011;6524;51.368;11.984;2023-04-12T04:22:27;5.77;;;4.20;;
12912;SDS011;6524;51.368;11.984;2023-04-12T04:27:28;6.80;;;4.53;;
12912;SDS011;6524;51.368;11.984;2023-04-12T04:32:29;5.47;;;4.60;;
12912;SDS011;6524;51.368;11.984;2023-04-12T04:37:30;5.80;;;4.10;;
12912;SDS011;6524;51.368;11.984;2023-04-12T04:42:32;6.90;;;4.30;;
12912;SDS011;6524;51.368;11.984;2023-04-12T04:47:32;5.27;;;3.87;;
12912;SDS011;6524;51.368;11.984;2023-04-12T04:52:33;6.00;;;3.90;;
12912;SDS011;6524;51.368;11.984;2023-04-12T04:57:33;6.10;;;4.30;;
12912;SDS011;6524;51.368;11.984;2023-04-12T05:02:33;4.47;;;3.80;;
12912;SDS011;6524;51.368;11.984;2023-04-12T05:07:34;5.93;;;3.93;;
12912;SDS011;6524;51.368;11.984;2023-04-12T05:12:35;6.43;;;3.67;;
12912;SDS011;6524;51.368;11.984;2023-04-12T05:17:36;7.67;;;3.77;;
12912;SDS011;6524;51.368;11.984;2023-04-12T05:22:37;5.47;;;3.50;;
12912;SDS011;6524;51.368;11.984;2023-04-12T05:27:37;4.83;;;3.63;;
12912;SDS011;6524;51.368;11.984;2023-04-12T05:32:37;6.50;;;3.58;;
12912;SDS011;6524;51.368;11.984;2023-04-12T05:37:38;6.13;;;3.50;;
12912;SDS011;6524;51.368;11.984;2023-04-12T05:42:38;5.50;;;3.33;;
12912;SDS011;6524;51.368;11.984;2023-04-12T05:47:38;6.30;;;3.30;;
12912;SDS011;6524;51.368;11.984;2023-04-12T05:52:39;5.47;;;3.73;;
12912;SDS011;6524;51.368;11.984;2023-04-12T05:57:39;4.20;;;3.03;;
12912;SDS011;6524;51.368;11.984;2023-04-12T06:02:40;4.87;;;3.00;;
12912;SDS011;6524;51.368;11.984;2023-04-12T06:07:40;4.57;;;3.00;;
12912;SDS011;6524;51.368;11.984;2023-04-12T06:12:47;5.13;;;3.07;;
12912;SDS011;6524;51.368;11.984;2023-04-12T06:17:47;4.67;;;2.97;;
12912;SDS011;6524;51.368;11.984;2023-04-12T06:22:49;5.90;;;3.00;;
12912;SDS011;6524;51.368;11.984;2023-04-12T06:27:50;4.83;;;3.03;;
12912;SDS011;6524;51.368;11.984;2023-04-12T06:32:50;5.50;;;3.60;;
12912;SDS011;6524;51.368;11.984;2023-04-12T06:37:50;5.03;;;3.10;;
12912;SDS011;6524;51.368;11.984;2023-04-12T06:42:51;4.97;;;3.30;;
12912;SDS011;6524;51.368;11.984;2023-04-12T06:47:51;6.07;;;2.90;;
12912;SDS011;6524;51.368;11.984;2023-04-12T06:52:53;6.00;;;3.20;;
12912;SDS011;6524;51.368;11.984;2023-04-12T06:57:54;4.37;;;3.10;;
12912;SDS011;6524;51.368;11.984;2023-04-12T07:02:54;6.47;;;3.40;;
12912;SDS011;6524;51.368;11.984;2023-04-12T07:07:55;7.57;;;3.60;;
12912;SDS011;6524;51.368;11.984;2023-04-12T07:12:55;4.18;;;3.10;;
12912;SDS011;6524;51.368;11.984;2023-04-12T07:17:57;6.57;;;3.00;;
12912;SDS011;6524;51.368;11.984;2023-04-12T07:22:57;4.30;;;3.07;;
12912;SDS011;6524;51.368;11.984;2023-04-12T07:27:58;5.38;;;3.17;;
12912;SDS011;6524;51.368;11.984;2023-04-12T07:32:58;4.00;;;2.80;;
12912;SDS011;6524;51.368;11.984;2023-04-12T07:38:04;5.35;;;3.00;;
12912;SDS011;6524;51.368;11.984;2023-04-12T07:43:05;5.80;;;3.20;;
12912;SDS011;6524;51.368;11.984;2023-04-12T07:48:05;5.32;;;3.08;;
12912;SDS011;6524;51.368;11.984;2023-04-12T07:53:27;4.70;;;3.40;;
12912;SDS011;6524;51.368;11.984;2023-04-12T07:58:27;5.35;;;3.13;;
12912;SDS011;6524;51.368;11.984;2023-04-12T08:03:28;5.20;;;3.13;;
12912;SDS011;6524;51.368;11.984;2023-04-12T08:08:28;4.97;;;3.08;;
12912;SDS011;6524;51.368;11.984;2023-04-12T08:13:29;5.55;;;3.25;;
12912;SDS011;6524;51.368;11.984;2023-04-12T08:18:29;5.00;;;3.10;;
12912;SDS011;6524;51.368;11.984;2023-04-12T08:23:29;4.47;;;2.88;;
12912;SDS011;6524;51.368;11.984;2023-04-12T08:28:30;4.32;;;3.10;;
12912;SDS011;6524;51.368;11.984;2023-04-12T08:33:30;3.95;;;3.00;;
12912;SDS011;6524;51.368;11.984;2023-04-12T08:38:31;5.47;;;3.10;;
12912;SDS011;6524;51.368;11.984;2023-04-12T08:43:31;4.07;;;2.78;;
12912;SDS011;6524;51.368;11.984;2023-04-12T08:48:33;5.78;;;2.90;;
12912;SDS011;6524;51.368;11.984;2023-04-12T08:53:35;3.80;;;2.65;;
12912;SDS011;6524;51.368;11.984;2023-04-12T08:58:36;5.18;;;2.88;;
12912;SDS011;6524;51.368;11.984;2023-04-12T09:03:42;5.07;;;3.10;;
12912;SDS011;6524;51.368;11.984;2023-04-12T09:08:50;6.13;;;2.80;;
12912;SDS011;6524;51.368;11.984;2023-04-12T09:13:54;5.85;;;2.70;;
12912;SDS011;6524;51.368;11.984;2023-04-12T09:18:56;4.10;;;2.58;;
12912;SDS011;6524;51.368;11.984;2023-04-12T09:24:12;4.28;;;2.47;;
12912;SDS011;6524;51.368;11.984;2023-04-12T09:29:20;4.28;;;2.83;;
12912;SDS011;6524;51.368;11.984;2023-04-12T09:34:23;6.05;;;2.55;;
12912;SDS011;6524;51.368;11.984;2023-04-12T09:39:32;6.40;;;2.50;;
12912;SDS011;6524;51.368;11.984;2023-04-12T09:44:34;4.20;;;2.67;;
12912;SDS011;6524;51.368;11.984;2023-04-12T09:49:38;4.88;;;2.60;;
12912;SDS011;6524;51.368;11.984;2023-04-12T09:59:40;4.97;;;2.22;;
12912;SDS011;6524;51.368;11.984;2023-04-12T10:04:41;4.25;;;2.50;;
12912;SDS011;6524;51.368;11.984;2023-04-12T10:09:42;4.65;;;2.60;;
12912;SDS011;6524;51.368;11.984;2023-04-12T10:14:43;3.67;;;2.30;;
12912;SDS011;6524;51.368;11.984;2023-04-12T10:19:45;5.95;;;2.35;;
12912;SDS011;6524;51.368;11.984;2023-04-12T10:24:46;4.35;;;2.10;;
12912;SDS011;6524;51.368;11.984;2023-04-12T10:29:48;6.13;;;2.45;;
12912;SDS011;6524;51.368;11.984;2023-04-12T10:34:52;3.28;;;2.00;;
12912;SDS011;6524;51.368;11.984;2023-04-12T10:39:57;4.57;;;2.17;;
12912;SDS011;6524;51.368;11.984;2023-04-12T10:50:30;5.10;;;2.55;;
12912;SDS011;6524;51.368;11.984;2023-04-12T10:55:32;3.72;;;2.50;;
12912;SDS011;6524;51.368;11.984;2023-04-12T11:06:03;5.63;;;2.35;;
12912;SDS011;6524;51.368;11.984;2023-04-12T11:11:04;3.17;;;2.28;;
12912;SDS011;6524;51.368;11.984;2023-04-12T11:16:17;4.57;;;2.50;;
12912;SDS011;6524;51.368;11.984;2023-04-12T11:21:18;5.00;;;3.15;;
12912;SDS011;6524;51.368;11.984;2023-04-12T11:26:19;5.70;;;3.17;;
12912;SDS011;6524;51.368;11.984;2023-04-12T11:31:21;3.47;;;2.63;;
12912;SDS011;6524;51.368;11.984;2023-04-12T11:36:22;5.20;;;3.00;;
12912;SDS011;6524;51.368;11.984;2023-04-12T11:41:22;6.38;;;2.75;;
12912;SDS011;6524;51.368;11.984;2023-04-12T11:46:22;4.15;;;2.10;;
12912;SDS011;6524;51.368;11.984;2023-04-12T11:51:24;4.43;;;2.67;;
12912;SDS011;6524;51.368;11.984;2023-04-12T11:56:25;3.88;;;2.35;;
12912;SDS011;6524;51.368;11.984;2023-04-12T12:01:28;3.10;;;2.20;;
12912;SDS011;6524;51.368;11.984;2023-04-12T12:06:29;2.40;;;2.10;;
12912;SDS011;6524;51.368;11.984;2023-04-12T12:11:32;3.47;;;2.58;;
12912;SDS011;6524;51.368;11.984;2023-04-12T12:16:33;3.45;;;2.60;;
12912;SDS011;6524;51.368;11.984;2023-04-12T12:21:34;2.83;;;2.53;;
12912;SDS011;6524;51.368;11.984;2023-04-12T12:26:35;2.80;;;2.17;;
12912;SDS011;6524;51.368;11.984;2023-04-12T12:31:36;2.58;;;2.20;;
12912;SDS011;6524;51.368;11.984;2023-04-12T12:36:36;3.05;;;2.60;;
12912;SDS011;6524;51.368;11.984;2023-04-12T12:41:38;3.88;;;3.28;;
12912;SDS011;6524;51.368;11.984;2023-04-12T12:46:39;3.88;;;3.10;;
12912;SDS011;6524;51.368;11.984;2023-04-12T12:51:40;3.25;;;2.92;;
12912;SDS011;6524;51.368;11.984;2023-04-12T12:56:41;4.60;;;3.35;;
12912;SDS011;6524;51.368;11.984;2023-04-12T13:01:41;4.88;;;3.35;;
12912;SDS011;6524;51.368;11.984;2023-04-12T13:06:42;3.47;;;2.90;;
12912;SDS011;6524;51.368;11.984;2023-04-12T13:11:42;4.37;;;3.43;;
12912;SDS011;6524;51.368;11.984;2023-04-12T13:16:42;4.03;;;3.17;;
12912;SDS011;6524;51.368;11.984;2023-04-12T13:21:44;5.15;;;2.88;;
12912;SDS011;6524;51.368;11.984;2023-04-12T13:26:45;2.60;;;2.40;;
12912;SDS011;6524;51.368;11.984;2023-04-12T13:31:46;4.37;;;2.97;;
12912;SDS011;6524;51.368;11.984;2023-04-12T13:36:46;3.17;;;2.88;;
12912;SDS011;6524;51.368;11.984;2023-04-12T13:41:47;3.50;;;2.53;;
12912;SDS011;6524;51.368;11.984;2023-04-12T13:46:48;3.30;;;2.45;;
12912;SDS011;6524;51.368;11.984;2023-04-12T13:51:48;4.20;;;3.00;;
12912;SDS011;6524;51.368;11.984;2023-04-12T13:56:49;3.90;;;2.97;;
12912;SDS011;6524;51.368;11.984;2023-04-12T14:01:49;3.30;;;3.00;;
12912;SDS011;6524;51.368;11.984;2023-04-12T14:06:49;4.97;;;3.23;;
12912;SDS011;6524;51.368;11.984;2023-04-12T14:11:50;3.88;;;3.33;;
12912;SDS011;6524;51.368;11.984;2023-04-12T14:16:51;3.58;;;2.90;;
12912;SDS011;6524;51.368;11.984;2023-04-12T14:21:54;3.13;;;2.78;;
12912;SDS011;6524;51.368;11.984;2023-04-12T14:26:55;4.55;;;3.03;;
12912;SDS011;6524;51.368;11.984;2023-04-12T14:31:56;4.55;;;2.92;;
12912;SDS011;6524;51.368;11.984;2023-04-12T14:36:56;3.88;;;3.03;;
12912;SDS011;6524;51.368;11.984;2023-04-12T14:41:57;3.30;;;3.00;;
12912;SDS011;6524;51.368;11.984;2023-04-12T14:46:58;3.97;;;3.00;;
12912;SDS011;6524;51.368;11.984;2023-04-12T14:51:58;3.42;;;2.97;;
12912;SDS011;6524;51.368;11.984;2023-04-12T14:56:58;4.10;;;2.90;;
12912;SDS011;6524;51.368;11.984;2023-04-12T15:01:59;2.80;;;2.60;;
12912;SDS011;6524;51.368;11.984;2023-04-12T15:06:59;2.95;;;2.65;;
12912;SDS011;6524;51.368;11.984;2023-04-12T15:12:00;3.07;;;2.77;;
12912;SDS011;6524;51.368;11.984;2023-04-12T15:17:00;2.95;;;2.63;;
12912;SDS011;6524;51.368;11.984;2023-04-12T15:22:00;3.63;;;2.60;;
12912;SDS011;6524;51.368;11.984;2023-04-12T15:27:01;2.78;;;2.50;;
12912;SDS011;6524;51.368;11.984;2023-04-12T15:32:01;3.15;;;2.65;;
12912;SDS011;6524;51.368;11.984;2023-04-12T15:37:02;3.42;;;2.38;;
12912;SDS011;6524;51.368;11.984;2023-04-12T15:42:02;3.15;;;2.60;;
12912;SDS011;6524;51.368;11.984;2023-04-12T15:47:04;3.67;;;2.53;;
12912;SDS011;6524;51.368;11.984;2023-04-12T15:52:05;3.33;;;2.60;;
12912;SDS011;6524;51.368;11.984;2023-04-12T15:57:05;3.08;;;2.60;;
12912;SDS011;6524;51.368;11.984;2023-04-12T16:02:10;2.60;;;2.40;;
12912;SDS011;6524;51.368;11.984;2023-04-12T16:07:10;3.83;;;2.70;;
12912;SDS011;6524;51.368;11.984;2023-04-12T16:12:10;2.80;;;2.60;;
12912;SDS011;6524;51.368;11.984;2023-04-12T16:17:11;3.60;;;2.75;;
12912;SDS011;6524;51.368;11.984;2023-04-12T16:22:11;3.10;;;2.80;;
12912;SDS011;6524;51.368;11.984;2023-04-12T16:27:12;4.60;;;2.67;;
12912;SDS011;6524;51.368;11.984;2023-04-12T16:32:12;3.65;;;2.53;;
12912;SDS011;6524;51.368;11.984;2023-04-12T16:37:12;3.35;;;3.05;;
12912;SDS011;6524;51.368;11.984;2023-04-12T16:42:13;4.35;;;3.50;;
12912;SDS011;6524;51.368;11.984;2023-04-12T16:47:13;4.63;;;3.50;;
12912;SDS011;6524;51.368;11.984;2023-04-12T16:52:14;2.97;;;2.67;;
12912;SDS011;6524;51.368;11.984;2023-04-12T16:57:15;2.70;;;2.47;;
12912;SDS011;6524;51.368;11.984;2023-04-12T17:02:16;2.90;;;2.60;;
12912;SDS011;6524;51.368;11.984;2023-04-12T17:07:16;2.90;;;2.42;;
12912;SDS011;6524;51.368;11.984;2023-04-12T17:12:17;4.57;;;2.80;;
12912;SDS011;6524;51.368;11.984;2023-04-12T17:17:18;4.32;;;2.90;;
12912;SDS011;6524;51.368;11.984;2023-04-12T17:22:18;2.63;;;2.43;;
12912;SDS011;6524;51.368;11.984;2023-04-12T17:27:18;4.03;;;2.70;;
12912;SDS011;6524;51.368;11.984;2023-04-12T17:32:19;3.50;;;2.92;;
12912;SDS011;6524;51.368;11.984;2023-04-12T17:37:23;3.80;;;2.92;;
12912;SDS011;6524;51.368;11.984;2023-04-12T17:42:24;2.45;;;2.15;;
12912;SDS011;6524;51.368;11.984;2023-04-12T17:47:25;3.90;;;3.40;;
12912;SDS011;6524;51.368;11.984;2023-04-12T17:52:25;2.92;;;2.20;;
12912;SDS011;6524;51.368;11.984;2023-04-12T17:57:26;2.83;;;2.08;;
12912;SDS011;6524;51.368;11.984;2023-04-12T18:02:26;2.90;;;2.40;;
12912;SDS011;6524;51.368;11.984;2023-04-12T18:07:27;3.08;;;2.50;;
12912;SDS011;6524;51.368;11.984;2023-04-12T18:12:29;3.70;;;3.35;;
12912;SDS011;6524;51.368;11.984;2023-04-12T18:17:30;3.67;;;3.00;;
12912;SDS011;6524;51.368;11.984;2023-04-12T18:22:30;2.72;;;2.53;;
12912;SDS011;6524;51.368;11.984;2023-04-12T18:27:30;2.90;;;2.42;;
12912;SDS011;6524;51.368;11.984;2023-04-12T18:32:31;3.65;;;2.30;;
12912;SDS011;6524;51.368;11.984;2023-04-12T18:37:31;2.92;;;2.63;;
12912;SDS011;6524;51.368;11.984;2023-04-12T18:42:32;2.70;;;2.50;;
12912;SDS011;6524;51.368;11.984;2023-04-12T18:47:32;5.40;;;4.38;;
12912;SDS011;6524;51.368;11.984;2023-04-12T18:52:32;3.25;;;2.70;;
12912;SDS011;6524;51.368;11.984;2023-04-12T18:57:33;2.83;;;2.63;;
12912;SDS011;6524;51.368;11.984;2023-04-12T19:02:34;3.47;;;2.85;;
12912;SDS011;6524;51.368;11.984;2023-04-12T19:07:35;3.47;;;3.17;;
12912;SDS011;6524;51.368;11.984;2023-04-12T19:12:36;3.42;;;3.15;;
12912;SDS011;6524;51.368;11.984;2023-04-12T19:17:36;3.47;;;3.17;;
12912;SDS011;6524;51.368;11.984;2023-04-12T19:22:38;3.92;;;3.33;;
12912;SDS011;6524;51.368;11.984;2023-04-12T19:27:38;4.20;;;3.25;;
12912;SDS011;6524;51.368;11.984;2023-04-12T19:32:39;3.38;;;2.72;;
12912;SDS011;6524;51.368;11.984;2023-04-12T19:37:39;4.68;;;3.83;;
12912;SDS011;6524;51.368;11.984;2023-04-12T19:42:40;10.93;;;7.93;;
12912;SDS011;6524;51.368;11.984;2023-04-12T19:47:40;3.38;;;3.08;;
12912;SDS011;6524;51.368;11.984;2023-04-12T19:52:43;5.25;;;4.75;;
12912;SDS011;6524;51.368;11.984;2023-04-12T19:57:45;5.05;;;4.45;;
12912;SDS011;6524;51.368;11.984;2023-04-12T20:02:46;3.03;;;2.70;;
12912;SDS011;6524;51.368;11.984;2023-04-12T20:07:51;3.13;;;2.83;;
12912;SDS011;6524;51.368;11.984;2023-04-12T20:12:54;4.15;;;3.75;;
12912;SDS011;6524;51.368;11.984;2023-04-12T20:17:55;3.85;;;3.55;;
12912;SDS011;6524;51.368;11.984;2023-04-12T20:22:55;3.65;;;3.25;;
12912;SDS011;6524;51.368;11.984;2023-04-12T20:27:57;6.65;;;5.95;;
12912;SDS011;6524;51.368;11.984;2023-04-12T20:33:00;3.03;;;2.70;;
12912;SDS011;6524;51.368;11.984;2023-04-12T20:38:01;4.45;;;2.45;;
12912;SDS011;6524;51.368;11.984;2023-04-12T20:43:01;2.60;;;2.40;;
12912;SDS011;6524;51.368;11.984;2023-04-12T20:48:03;2.20;;;1.95;;
12912;SDS011;6524;51.368;11.984;2023-04-12T20:53:03;3.17;;;2.60;;
12912;SDS011;6524;51.368;11.984;2023-04-12T20:58:04;2.67;;;2.25;;
12912;SDS011;6524;51.368;11.984;2023-04-12T21:03:05;1.80;;;1.70;;
12912;SDS011;6524;51.368;11.984;2023-04-12T21:08:07;3.75;;;1.65;;
12912;SDS011;6524;51.368;11.984;2023-04-12T21:13:07;1.58;;;1.48;;
12912;SDS011;6524;51.368;11.984;2023-04-12T21:18:07;2.08;;;1.40;;
12912;SDS011;6524;51.368;11.984;2023-04-12T21:23:08;1.50;;;1.40;;
12912;SDS011;6524;51.368;11.984;2023-04-12T21:28:08;1.50;;;1.40;;
12912;SDS011;6524;51.368;11.984;2023-04-12T21:33:10;1.60;;;1.50;;
12912;SDS011;6524;51.368;11.984;2023-04-12T21:38:23;1.70;;;1.27;;
12912;SDS011;6524;51.368;11.984;2023-04-12T21:43:24;1.60;;;1.50;;
12912;SDS011;6524;51.368;11.984;2023-04-12T21:48:25;1.27;;;1.17;;
12912;SDS011;6524;51.368;11.984;2023-04-12T21:53:25;1.35;;;1.25;;
12912;SDS011;6524;51.368;11.984;2023-04-12T21:58:26;1.20;;;1.10;;
12912;SDS011;6524;51.368;11.984;2023-04-12T22:03:31;1.38;;;1.20;;
12912;SDS011;6524;51.368;11.984;2023-04-12T22:08:31;1.40;;;1.30;;
12912;SDS011;6524;51.368;11.984;2023-04-12T22:13:32;1.43;;;1.33;;
12912;SDS011;6524;51.368;11.984;2023-04-12T22:18:33;1.80;;;1.50;;
12912;SDS011;6524;51.368;11.984;2023-04-12T22:23:34;1.97;;;1.70;;
12912;SDS011;6524;51.368;11.984;2023-04-12T22:28:39;3.07;;;1.70;;
12912;SDS011;6524;51.368;11.984;2023-04-12T22:33:40;2.43;;;1.90;;
12912;SDS011;6524;51.368;11.984;2023-04-12T22:38:41;2.23;;;1.70;;
12912;SDS011;6524;51.368;11.984;2023-04-12T22:43:41;2.37;;;1.80;;
12912;SDS011;6524;51.368;11.984;2023-04-12T22:48:42;2.57;;;1.90;;
12912;SDS011;6524;51.368;11.984;2023-04-12T22:53:43;2.63;;;1.80;;
12912;SDS011;6524;51.368;11.984;2023-04-12T22:58:44;3.43;;;2.00;;
12912;SDS011;6524;51.368;11.984;2023-04-12T23:03:45;3.50;;;2.13;;
12912;SDS011;6524;51.368;11.984;2023-04-12T23:08:45;2.30;;;2.10;;
12912;SDS011;6524;51.368;11.984;2023-04-12T23:13:45;3.07;;;2.00;;
12912;SDS011;6524;51.368;11.984;2023-04-12T23:18:46;2.80;;;2.10;;
12912;SDS011;6524;51.368;11.984;2023-04-12T23:23:47;3.03;;;2.10;;
12912;SDS011;6524;51.368;11.984;2023-04-12T23:28:47;3.47;;;2.40;;
12912;SDS011;6524;51.368;11.984;2023-04-12T23:33:48;2.37;;;1.90;;
12912;SDS011;6524;51.368;11.984;2023-04-12T23:38:49;2.50;;;2.00;;
12912;SDS011;6524;51.368;11.984;2023-04-12T23:43:54;2.67;;;2.27;;
12912;SDS011;6524;51.368;11.984;2023-04-12T23:48:54;3.00;;;2.07;;
12912;SDS011;6524;51.368;11.984;2023-04-12T23:53:55;3.10;;;2.10;;
12912;SDS011;6524;51.368;11.984;2023-04-12T23:58:55;2.87;;;2.00;;
